首页
METAR-TAF:

METAR-TAF

机场 :

Jandakot, 澳大利亚

纬度: 32-05-51S, 经度: 115-52-52E, 海拔: 30米

当前天气观测

该预报发布于32分钟前的01:32 UTC
风速6节,风向西
温度 16°C
湿度 100%
气压 1025 hPa
散云层高于500英尺
散云层高于1000英尺
散云层高于1600英尺
小阵雨

METAR: YPJT 310132Z AUTO 26006KT //// -SHRA SCT005 SCT010 SCT016 16/16 Q1025 RESHRA

时间: 10:04 (02:04 UTC)

预报

该预报发布于2小时和55分钟前的23:09 UTC
预报有效从31日的 00点(UTC)到 31日的 18点(UTC)
风速6节,风向西
能见度10公里或以上
散云层高于2000英尺
多云层高于4000英尺
小阵雨
从 31日的 0300点(UTC)
风速12节,风向西南
能见度10公里或以上
散云层高于2000英尺
多云层高于3500英尺
小阵雨
从 31日的 0800点(UTC)
风速6节,风向
能见度10公里或以上
散云层高于2500英尺
从 31日的 1400点(UTC)
风速4节,风向
能見度: 4000
少量云层高于2000英尺
散云层高于4000英尺
多云层高于1500英尺
阵雨

TAF: YPJT 302309Z 3100/3118 28006KT 9999 -SHRA SCT020 BKN040 FM310300 22012KT 9999 -SHRA SCT020 BKN035 FM310800 18006KT 9999 NSW SCT025 FM311400 10004KT 9999 FEW020 SCT040 INTER 3100/3106 4000 SHRA BKN015

超过4000个机场的气象观测和天气预报(METAR&TAF报告)。

可查询的气象台以黄色和红色小点在地图上表示。

将鼠标移到小点上方,可查看气象台名称。

然后点击查看天气观测和预报。

如需切换地图:点击带黑十字的绿色按钮放大地图;点击带横线的绿色按钮缩小地图;或者点击绿色箭头查看邻近地区的地图。


METAR-TAF: